Time,TemperatureF,DewpointF,PressureIn,WindDirection,WindDirectionDegrees,WindSpeedMPH,WindSpeedGustMPH,Humidity,HourlyPrecipIn,Conditions,Clouds,dailyrainin,SoftwareType,DateUTC
2016-07-25 00:02:00,74.9,68.3,29.85,NW,309,3.0,9.0,80,0.00,,---,0.00,VWS V15.00,2016-07-25 05:02:00,
2016-07-25 00:07:00,74.9,68.3,29.85,NW,304,4.0,7.0,80,0.00,,---,0.00,VWS V15.00,2016-07-25 05:07:00,
2016-07-25 00:12:00,74.9,68.3,29.86,NW,309,2.0,8.0,80,0.00,,---,0.00,VWS V15.00,2016-07-25 05:12:00,
2016-07-25 00:17:00,74.8,67.9,29.86,WSW,244,13.0,13.0,79,0.00,,---,0.00,VWS V15.00,2016-07-25 05:17:00,
2016-07-25 00:22:00,74.8,67.9,29.86,NW,319,0.0,7.0,79,0.00,,---,0.00,VWS V15.00,2016-07-25 05:22:00,
2016-07-25 00:27:00,74.7,67.8,29.87,West,279,6.0,9.0,79,0.00,,---,0.00,VWS V15.00,2016-07-25 05:27:00,
2016-07-25 00:32:00,74.7,67.8,29.87,WNW,293,3.0,5.0,79,0.00,,---,0.00,VWS V15.00,2016-07-25 05:32:00,
2016-07-25 00:37:00,74.6,67.7,29.87,NNW,342,7.0,10.0,79,0.00,,---,0.00,VWS V15.00,2016-07-25 05:37:00,
2016-07-25 00:42:00,74.5,67.6,29.88,NNW,336,7.0,8.0,79,0.00,,---,0.00,VWS V15.00,2016-07-25 05:42:00,
2016-07-25 00:47:00,74.4,67.1,29.88,NW,314,5.0,6.0,78,0.00,,---,0.00,VWS V15.00,2016-07-25 05:47:00,
2016-07-25 00:52:00,74.3,67.0,29.87,WNW,286,4.0,8.0,78,0.00,,---,0.00,VWS V15.00,2016-07-25 05:52:00,
2016-07-25 00:57:00,74.2,66.9,29.88,WNW,292,6.0,7.0,78,0.00,,---,0.00,VWS V15.00,2016-07-25 05:57:00,
2016-07-25 01:02:00,74.1,67.2,29.88,NW,310,1.0,7.0,79,0.00,,---,0.00,VWS V15.00,2016-07-25 06:02:00,
2016-07-25 01:07:00,74.0,67.1,29.88,NW,309,3.0,3.0,79,0.00,,---,0.00,VWS V15.00,2016-07-25 06:07:00,
2016-07-25 01:12:00,73.9,67.0,29.88,NW,304,7.0,7.0,79,0.00,,---,0.00,VWS V15.00,2016-07-25 06:12:00,
2016-07-25 01:17:00,73.7,66.8,29.88,NW,319,4.0,8.0,79,0.00,,---,0.00,VWS V15.00,2016-07-25 06:17:00,
2016-07-25 01:22:00,73.6,66.7,29.88,WNW,296,9.0,9.0,79,0.00,,---,0.00,VWS V15.00,2016-07-25 06:22:00,
2016-07-25 01:27:00,73.5,66.6,29.88,WNW,290,6.0,7.0,79,0.00,,---,0.00,VWS V15.00,2016-07-25 06:27:00,
2016-07-25 01:32:00,73.4,66.9,29.88,WNW,295,0.0,6.0,80,0.00,,---,0.00,VWS V15.00,2016-07-25 06:32:00,
2016-07-25 01:37:00,73.3,66.8,29.89,WNW,295,2.0,6.0,80,0.00,,---,0.00,VWS V15.00,2016-07-25 06:37:00,
2016-07-25 01:42:00,73.2,66.7,29.89,WNW,291,3.0,5.0,80,0.00,,---,0.00,VWS V15.00,2016-07-25 06:42:00,
2016-07-25 01:47:00,73.0,66.8,29.89,WNW,286,3.0,4.0,81,0.00,,---,0.00,VWS V15.00,2016-07-25 06:47:00,
2016-07-25 01:52:00,72.9,66.7,29.89,WNW,286,1.0,4.0,81,0.00,,---,0.00,VWS V15.00,2016-07-25 06:52:00,
2016-07-25 01:57:00,72.7,66.5,29.89,WNW,287,0.0,4.0,81,0.00,,---,0.00,VWS V15.00,2016-07-25 06:57:00,
2016-07-25 02:02:00,72.6,66.4,29.89,WNW,284,2.0,5.0,81,0.00,,---,0.00,VWS V15.00,2016-07-25 07:02:00,
2016-07-25 02:07:00,72.5,66.7,29.89,WNW,284,2.0,4.0,82,0.00,,---,0.00,VWS V15.00,2016-07-25 07:07:00,
2016-07-25 02:12:00,72.3,66.5,29.89,WNW,284,2.0,5.0,82,0.00,,---,0.00,VWS V15.00,2016-07-25 07:12:00,
2016-07-25 02:17:00,72.2,66.4,29.89,WNW,284,0.0,2.0,82,0.00,,---,0.00,VWS V15.00,2016-07-25 07:17:00,
2016-07-25 02:22:00,72.1,66.3,29.89,WNW,286,0.0,2.0,82,0.00,,---,0.00,VWS V15.00,2016-07-25 07:22:00,
2016-07-25 02:27:00,72.0,66.2,29.89,WNW,285,3.0,4.0,82,0.00,,---,0.00,VWS V15.00,2016-07-25 07:27:00,
2016-07-25 02:32:00,71.9,66.1,29.90,WNW,300,0.0,5.0,82,0.00,,---,0.00,VWS V15.00,2016-07-25 07:32:00,
2016-07-25 02:37:00,71.8,66.0,29.90,WNW,301,0.0,1.0,82,0.00,,---,0.00,VWS V15.00,2016-07-25 07:37:00,
2016-07-25 02:42:00,71.7,65.9,29.90,WNW,301,0.0,0.0,82,0.00,,---,0.00,VWS V15.00,2016-07-25 07:42:00,
2016-07-25 02:47:00,71.6,66.2,29.90,WNW,301,1.0,2.0,83,0.00,,---,0.00,VWS V15.00,2016-07-25 07:47:00,
2016-07-25 02:52:00,71.5,66.1,29.91,WNW,301,1.0,3.0,83,0.00,,---,0.00,VWS V15.00,2016-07-25 07:52:00,
2016-07-25 02:57:00,71.3,65.9,29.91,WNW,298,1.0,4.0,83,0.00,,---,0.00,VWS V15.00,2016-07-25 07:57:00,
2016-07-25 03:02:00,71.2,65.8,29.91,WNW,298,0.0,3.0,83,0.00,,---,0.00,VWS V15.00,2016-07-25 08:02:00,
2016-07-25 03:07:00,71.1,65.7,29.91,WNW,298,1.0,4.0,83,0.00,,---,0.00,VWS V15.00,2016-07-25 08:07:00,
2016-07-25 03:12:00,71.0,65.6,29.91,WNW,298,0.0,3.0,83,0.00,,---,0.00,VWS V15.00,2016-07-25 08:12:00,
2016-07-25 03:17:00,70.9,65.8,29.91,WNW,298,2.0,3.0,84,0.00,,---,0.00,VWS V15.00,2016-07-25 08:17:00,
2016-07-25 03:22:00,70.7,65.6,29.91,WNW,298,1.0,2.0,84,0.00,,---,0.00,VWS V15.00,2016-07-25 08:22:00,
2016-07-25 03:27:00,70.5,65.4,29.91,WNW,298,1.0,3.0,84,0.00,,---,0.00,VWS V15.00,2016-07-25 08:27:00,
2016-07-25 03:32:00,70.3,65.2,29.91,WNW,298,0.0,3.0,84,0.00,,---,0.00,VWS V15.00,2016-07-25 08:32:00,
2016-07-25 03:37:00,70.1,65.1,29.91,WNW,298,0.0,2.0,84,0.00,,---,0.00,VWS V15.00,2016-07-25 08:37:00,
2016-07-25 03:41:00,69.9,65.2,29.91,WNW,298,0.0,3.0,85,0.00,,---,0.00,VWS V15.00,2016-07-25 08:41:00,
2016-07-25 03:46:00,69.7,65.0,29.90,WNW,298,0.0,2.0,85,0.00,,---,0.00,VWS V15.00,2016-07-25 08:46:00,
2016-07-25 03:51:00,69.5,64.8,29.90,WNW,298,0.0,1.0,85,0.00,,---,0.00,VWS V15.00,2016-07-25 08:51:00,
2016-07-25 03:56:00,69.3,64.9,29.90,WNW,298,0.0,3.0,86,0.00,,---,0.00,VWS V15.00,2016-07-25 08:56:00,
2016-07-25 04:01:00,69.1,64.7,29.90,WNW,298,1.0,3.0,86,0.00,,---,0.00,VWS V15.00,2016-07-25 09:01:00,
2016-07-25 04:06:00,68.9,64.6,29.90,WNW,298,0.0,4.0,86,0.00,,---,0.00,VWS V15.00,2016-07-25 09:06:00,
2016-07-25 04:11:00,68.6,64.6,29.90,WNW,298,0.0,2.0,87,0.00,,---,0.00,VWS V15.00,2016-07-25 09:11:00,
2016-07-25 04:16:00,68.4,64.4,29.90,WNW,298,0.0,1.0,87,0.00,,---,0.00,VWS V15.00,2016-07-25 09:16:00,
2016-07-25 04:21:00,68.2,64.5,29.90,WNW,298,0.0,2.0,88,0.00,,---,0.00,VWS V15.00,2016-07-25 09:21:00,
2016-07-25 04:26:00,68.0,64.3,29.90,WNW,298,0.0,2.0,88,0.00,,---,0.00,VWS V15.00,2016-07-25 09:26:00,
2016-07-25 04:31:00,67.7,64.0,29.90,WNW,298,0.0,2.0,88,0.00,,---,0.00,VWS V15.00,2016-07-25 09:31:00,
2016-07-25 04:36:00,67.5,64.2,29.90,WNW,298,0.0,2.0,89,0.00,,---,0.00,VWS V15.00,2016-07-25 09:36:00,
2016-07-25 04:41:00,67.3,64.0,29.90,WNW,298,0.0,0.0,89,0.00,,---,0.00,VWS V15.00,2016-07-25 09:41:00,
2016-07-25 04:46:00,67.2,63.8,29.90,WNW,298,0.0,2.0,89,0.00,,---,0.00,VWS V15.00,2016-07-25 09:46:00,
2016-07-25 04:51:00,67.0,64.0,29.90,WNW,298,3.0,3.0,90,0.00,,---,0.00,VWS V15.00,2016-07-25 09:51:00,
2016-07-25 04:56:00,66.8,63.8,29.90,WNW,296,0.0,4.0,90,0.00,,---,0.00,VWS V15.00,2016-07-25 09:56:00,
2016-07-25 05:01:00,66.6,63.9,29.90,WNW,296,1.0,4.0,91,0.00,,---,0.00,VWS V15.00,2016-07-25 10:01:00,
2016-07-25 05:06:00,66.5,63.8,29.90,WNW,296,0.0,0.0,91,0.00,,---,0.00,VWS V15.00,2016-07-25 10:06:00,
2016-07-25 05:11:00,66.3,63.6,29.90,WNW,296,0.0,3.0,91,0.00,,---,0.00,VWS V15.00,2016-07-25 10:11:00,
2016-07-25 05:16:00,66.2,63.8,29.90,WNW,296,0.0,1.0,92,0.00,,---,0.00,VWS V15.00,2016-07-25 10:16:00,
2016-07-25 05:21:00,66.1,63.7,29.91,WNW,296,0.0,0.0,92,0.00,,---,0.00,VWS V15.00,2016-07-25 10:21:00,
2016-07-25 05:26:00,66.0,63.6,29.91,WNW,296,0.0,0.0,92,0.00,,---,0.00,VWS V15.00,2016-07-25 10:26:00,
2016-07-25 05:31:00,66.0,63.6,29.91,WNW,296,0.0,0.0,92,0.00,,---,0.00,VWS V15.00,2016-07-25 10:31:00,
2016-07-25 05:36:00,65.8,63.7,29.91,WNW,296,0.0,0.0,93,0.00,,---,0.00,VWS V15.00,2016-07-25 10:36:00,
2016-07-25 05:41:00,65.7,63.3,29.91,WNW,296,0.0,0.0,92,0.00,,---,0.00,VWS V15.00,2016-07-25 10:41:00,
2016-07-25 05:46:00,65.6,63.5,29.91,WNW,296,0.0,0.0,93,0.00,,---,0.00,VWS V15.00,2016-07-25 10:46:00,
2016-07-25 05:51:00,65.7,63.6,29.91,WNW,296,0.0,1.0,93,0.00,,---,0.00,VWS V15.00,2016-07-25 10:51:00,
2016-07-25 05:57:00,65.8,63.7,29.92,WNW,296,0.0,0.0,93,0.00,,---,0.00,VWS V15.00,2016-07-25 10:57:00,
2016-07-25 06:01:00,66.2,64.4,29.92,WNW,296,0.0,1.0,94,0.00,,---,0.00,VWS V15.00,2016-07-25 11:01:00,
2016-07-25 06:06:00,66.6,64.8,29.92,WNW,296,0.0,0.0,94,0.00,,---,0.00,VWS V15.00,2016-07-25 11:06:00,
2016-07-25 06:11:00,67.2,65.4,29.92,WNW,296,0.0,0.0,94,0.00,,---,0.00,VWS V15.00,2016-07-25 11:11:00,
2016-07-25 06:16:00,67.9,65.8,29.93,WNW,296,0.0,0.0,93,0.00,,---,0.00,VWS V15.00,2016-07-25 11:16:00,
2016-07-25 06:21:00,68.7,66.3,29.93,WNW,296,0.0,1.0,92,0.00,,---,0.00,VWS V15.00,2016-07-25 11:21:00,
2016-07-25 06:26:00,69.6,66.9,29.93,WNW,296,0.0,0.0,91,0.00,,---,0.00,VWS V15.00,2016-07-25 11:26:00,
2016-07-25 06:31:00,70.3,66.9,29.93,WNW,296,0.0,3.0,89,0.00,,---,0.00,VWS V15.00,2016-07-25 11:31:00,
2016-07-25 06:36:00,71.1,67.0,29.94,WNW,291,1.0,3.0,87,0.00,,---,0.00,VWS V15.00,2016-07-25 11:36:00,
2016-07-25 06:41:00,71.9,67.2,29.94,WNW,291,0.0,1.0,85,0.00,,---,0.00,VWS V15.00,2016-07-25 11:41:00,
2016-07-25 06:46:00,72.5,67.4,29.94,WNW,291,0.0,3.0,84,0.00,,---,0.00,VWS V15.00,2016-07-25 11:46:00,
2016-07-25 06:51:00,73.2,67.4,29.94,WNW,290,1.0,4.0,82,0.00,,---,0.00,VWS V15.00,2016-07-25 11:51:00,
2016-07-25 06:56:00,73.6,67.4,29.94,West,272,3.0,8.0,81,0.00,,---,0.00,VWS V15.00,2016-07-25 11:56:00,
2016-07-25 07:01:00,73.9,67.3,29.94,WNW,284,0.0,4.0,80,0.00,,---,0.00,VWS V15.00,2016-07-25 12:01:00,
2016-07-25 07:06:00,74.3,67.4,29.94,West,270,5.0,7.0,79,0.00,,---,0.00,VWS V15.00,2016-07-25 12:06:00,
2016-07-25 07:11:00,74.6,67.7,29.94,WNW,293,4.0,6.0,79,0.00,,---,0.00,VWS V15.00,2016-07-25 12:11:00,
2016-07-25 07:16:00,74.8,67.9,29.94,WNW,301,8.0,8.0,79,0.00,,---,0.00,VWS V15.00,2016-07-25 12:16:00,
2016-07-25 07:21:00,74.8,67.9,29.94,West,279,4.0,10.0,79,0.00,,---,0.00,VWS V15.00,2016-07-25 12:21:00,
2016-07-25 07:26:00,74.8,67.9,29.94,WNW,285,2.0,8.0,79,0.00,,---,0.00,VWS V15.00,2016-07-25 12:26:00,
2016-07-25 07:31:00,75.0,68.1,29.94,WNW,286,1.0,5.0,79,0.00,,---,0.00,VWS V15.00,2016-07-25 12:31:00,
2016-07-25 07:36:00,75.4,68.4,29.94,West,279,0.0,7.0,79,0.00,,---,0.00,VWS V15.00,2016-07-25 12:36:00,
2016-07-25 07:41:00,75.7,68.0,29.94,WNW,293,7.0,8.0,77,0.00,,---,0.00,VWS V15.00,2016-07-25 12:41:00,
2016-07-25 07:46:00,76.0,68.3,29.94,NW,309,5.0,6.0,77,0.00,,---,0.00,VWS V15.00,2016-07-25 12:46:00,
2016-07-25 07:51:00,76.2,68.1,29.94,WNW,296,3.0,10.0,76,0.00,,---,0.00,VWS V15.00,2016-07-25 12:51:00,
2016-07-25 07:56:00,76.4,68.7,29.94,West,278,1.0,2.0,77,0.00,,---,0.00,VWS V15.00,2016-07-25 12:56:00,
2016-07-25 08:01:00,76.8,68.3,29.94,WNW,301,3.0,8.0,75,0.00,,---,0.00,VWS V15.00,2016-07-25 13:01:00,
2016-07-25 08:06:00,77.3,68.4,29.94,NW,315,4.0,7.0,74,0.00,,---,0.00,VWS V15.00,2016-07-25 13:06:00,
2016-07-25 08:11:00,77.4,68.1,29.94,NW,304,0.0,4.0,73,0.00,,---,0.00,VWS V15.00,2016-07-25 13:11:00,
2016-07-25 08:16:00,77.6,68.3,29.93,NW,309,2.0,6.0,73,0.00,,---,0.00,VWS V15.00,2016-07-25 13:16:00,
2016-07-25 08:21:00,78.1,68.8,29.94,North,360,4.0,9.0,73,0.00,,---,0.00,VWS V15.00,2016-07-25 13:21:00,
2016-07-25 08:26:00,78.3,68.1,29.94,NW,314,3.0,6.0,71,0.00,,---,0.00,VWS V15.00,2016-07-25 13:26:00,
2016-07-25 08:31:00,78.7,68.9,29.94,NW,318,3.0,3.0,72,0.00,,---,0.00,VWS V15.00,2016-07-25 13:31:00,
2016-07-25 08:36:00,79.0,68.8,29.94,NW,306,7.0,8.0,71,0.00,,---,0.00,VWS V15.00,2016-07-25 13:36:00,
2016-07-25 08:41:00,78.8,68.2,29.94,NNW,342,7.0,10.0,70,0.00,,---,0.00,VWS V15.00,2016-07-25 13:41:00,
2016-07-25 08:46:00,78.6,68.0,29.94,NNW,346,5.0,11.0,70,0.00,,---,0.00,VWS V15.00,2016-07-25 13:46:00,
2016-07-25 08:51:00,78.8,68.6,29.94,NNW,342,0.0,4.0,71,0.00,,---,0.00,VWS V15.00,2016-07-25 13:51:00,
2016-07-25 08:56:00,79.4,69.2,29.94,NNW,337,5.0,5.0,71,0.00,,---,0.00,VWS V15.00,2016-07-25 13:56:00,
2016-07-25 09:01:00,79.9,69.7,29.94,NNW,333,4.0,6.0,71,0.00,,---,0.00,VWS V15.00,2016-07-25 14:01:00,
2016-07-25 09:06:00,80.4,70.1,29.94,NW,320,0.0,3.0,71,0.00,,---,0.00,VWS V15.00,2016-07-25 14:06:00,
2016-07-25 09:11:00,80.9,69.8,29.94,WNW,302,0.0,6.0,69,0.00,,---,0.00,VWS V15.00,2016-07-25 14:11:00,
2016-07-25 09:16:00,81.1,69.6,29.94,NW,316,1.0,5.0,68,0.00,,---,0.00,VWS V15.00,2016-07-25 14:16:00,
2016-07-25 09:21:00,81.5,69.9,29.94,NW,307,3.0,6.0,68,0.00,,---,0.00,VWS V15.00,2016-07-25 14:21:00,
2016-07-25 09:26:00,81.7,69.7,29.94,NW,309,4.0,8.0,67,0.00,,---,0.00,VWS V15.00,2016-07-25 14:26:00,
2016-07-25 09:31:00,82.2,70.6,29.94,NNW,327,3.0,3.0,68,0.00,,---,0.00,VWS V15.00,2016-07-25 14:31:00,
2016-07-25 09:36:00,81.8,68.4,29.94,North,360,5.0,6.0,64,0.00,,---,0.00,VWS V15.00,2016-07-25 14:36:00,
2016-07-25 09:41:00,81.3,68.4,29.94,NW,319,4.0,10.0,65,0.00,,---,0.00,VWS V15.00,2016-07-25 14:41:00,
2016-07-25 09:46:00,80.8,68.4,29.94,NNW,347,6.0,9.0,66,0.00,,---,0.00,VWS V15.00,2016-07-25 14:46:00,
2016-07-25 09:51:00,80.5,69.0,29.94,NNW,329,4.0,6.0,68,0.00,,---,0.00,VWS V15.00,2016-07-25 14:51:00,
2016-07-25 09:56:00,80.9,70.2,29.94,NNW,344,7.0,7.0,70,0.00,,---,0.00,VWS V15.00,2016-07-25 14:56:00,
2016-07-25 10:01:00,81.7,70.1,29.94,NW,306,3.0,4.0,68,0.00,,---,0.00,VWS V15.00,2016-07-25 15:01:00,
2016-07-25 10:06:00,82.2,69.3,29.94,North,360,3.0,9.0,65,0.00,,---,0.00,VWS V15.00,2016-07-25 15:06:00,
2016-07-25 10:11:00,82.5,69.6,29.94,NW,313,1.0,9.0,65,0.00,,---,0.00,VWS V15.00,2016-07-25 15:11:00,
2016-07-25 10:16:00,82.9,69.9,29.94,WNW,297,2.0,7.0,65,0.00,,---,0.00,VWS V15.00,2016-07-25 15:16:00,
2016-07-25 10:21:00,82.7,69.3,29.94,NNW,344,8.0,9.0,64,0.00,,---,0.00,VWS V15.00,2016-07-25 15:21:00,
2016-07-25 10:26:00,82.4,69.5,29.94,NNE,13,6.0,6.0,65,0.00,,---,0.00,VWS V15.00,2016-07-25 15:26:00,
2016-07-25 10:31:00,82.2,68.8,29.94,West,281,7.0,9.0,64,0.00,,---,0.00,VWS V15.00,2016-07-25 15:31:00,
2016-07-25 10:36:00,82.3,69.8,29.95,NW,325,1.0,9.0,66,0.00,,---,0.00,VWS V15.00,2016-07-25 15:36:00,
2016-07-25 10:41:00,82.5,69.1,29.95,NW,320,1.0,12.0,64,0.00,,---,0.00,VWS V15.00,2016-07-25 15:41:00,
2016-07-25 10:46:00,82.7,69.3,29.95,WNW,293,7.0,9.0,64,0.00,,---,0.00,VWS V15.00,2016-07-25 15:46:00,
2016-07-25 10:51:00,82.9,69.9,29.95,NNW,327,2.0,9.0,65,0.00,,---,0.00,VWS V15.00,2016-07-25 15:51:00,
2016-07-25 10:56:00,83.3,70.3,29.95,WNW,299,2.0,7.0,65,0.00,,---,0.00,VWS V15.00,2016-07-25 15:56:00,
2016-07-25 11:01:00,83.5,70.1,29.95,NNW,332,6.0,6.0,64,0.00,,---,0.00,VWS V15.00,2016-07-25 16:01:00,
2016-07-25 11:06:00,83.9,69.5,29.95,NNW,330,6.0,8.0,62,0.00,,---,0.00,VWS V15.00,2016-07-25 16:06:00,
2016-07-25 11:11:00,84.0,69.1,29.95,WNW,302,0.0,7.0,61,0.00,,---,0.00,VWS V15.00,2016-07-25 16:11:00,
2016-07-25 11:16:00,84.1,69.2,29.95,North,351,6.0,9.0,61,0.00,,---,0.00,VWS V15.00,2016-07-25 16:16:00,
2016-07-25 11:21:00,83.6,67.8,29.95,WNW,295,5.0,13.0,59,0.00,,---,0.00,VWS V15.00,2016-07-25 16:21:00,
2016-07-25 11:26:00,83.4,67.6,29.95,West,261,8.0,13.0,59,0.00,,---,0.00,VWS V15.00,2016-07-25 16:26:00,
2016-07-25 11:31:00,83.4,68.6,29.95,North,350,1.0,13.0,61,0.00,,---,0.00,VWS V15.00,2016-07-25 16:31:00,
2016-07-25 11:36:00,83.8,68.9,29.95,WNW,292,7.0,7.0,61,0.00,,---,0.00,VWS V15.00,2016-07-25 16:36:00,
2016-07-25 11:41:00,84.3,68.4,29.95,NW,304,3.0,10.0,59,0.00,,---,0.00,VWS V15.00,2016-07-25 16:41:00,
2016-07-25 11:46:00,84.3,68.4,29.96,NNW,338,9.0,12.0,59,0.00,,---,0.00,VWS V15.00,2016-07-25 16:46:00,
2016-07-25 11:51:00,84.2,68.8,29.95,WNW,285,3.0,10.0,60,0.00,,---,0.00,VWS V15.00,2016-07-25 16:51:00,
2016-07-25 11:56:00,84.3,69.4,29.96,NW,324,4.0,7.0,61,0.00,,---,0.00,VWS V15.00,2016-07-25 16:56:00,
2016-07-25 12:01:00,84.1,69.7,29.96,West,281,7.0,7.0,62,0.00,,---,0.00,VWS V15.00,2016-07-25 17:01:00,
2016-07-25 12:06:00,84.0,68.1,29.96,WSW,241,8.0,11.0,59,0.00,,---,0.00,VWS V15.00,2016-07-25 17:06:00,
2016-07-25 12:11:00,83.8,68.4,29.96,WNW,290,6.0,11.0,60,0.00,,---,0.00,VWS V15.00,2016-07-25 17:11:00,
2016-07-25 12:16:00,83.5,68.2,29.96,WNW,303,4.0,11.0,60,0.00,,---,0.00,VWS V15.00,2016-07-25 17:16:00,
2016-07-25 12:21:00,83.4,69.0,29.96,NW,321,1.0,10.0,62,0.00,,---,0.00,VWS V15.00,2016-07-25 17:21:00,
2016-07-25 12:26:00,83.7,68.8,29.95,WNW,300,1.0,10.0,61,0.00,,---,0.00,VWS V15.00,2016-07-25 17:26:00,
2016-07-25 12:31:00,84.0,68.6,29.95,West,267,6.0,10.0,60,0.00,,---,0.00,VWS V15.00,2016-07-25 17:31:00,
2016-07-25 12:36:00,83.7,67.9,29.95,WNW,292,11.0,11.0,59,0.00,,---,0.00,VWS V15.00,2016-07-25 17:36:00,
2016-07-25 12:41:00,83.8,69.9,29.95,NW,305,0.0,10.0,63,0.00,,---,0.00,VWS V15.00,2016-07-25 17:41:00,
2016-07-25 12:46:00,84.0,69.1,29.95,NNW,329,6.0,10.0,61,0.00,,---,0.00,VWS V15.00,2016-07-25 17:46:00,
2016-07-25 12:51:00,84.0,67.1,29.95,WNW,303,5.0,13.0,57,0.00,,---,0.00,VWS V15.00,2016-07-25 17:51:00,
2016-07-25 12:56:00,84.1,68.7,29.95,West,271,0.0,13.0,60,0.00,,---,0.00,VWS V15.00,2016-07-25 17:56:00,
2016-07-25 13:01:00,84.2,68.3,29.95,West,280,8.0,8.0,59,0.00,,---,0.00,VWS V15.00,2016-07-25 18:01:00,
2016-07-25 13:06:00,83.8,67.0,29.95,West,281,10.0,14.0,57,0.00,,---,0.00,VWS V15.00,2016-07-25 18:06:00,
2016-07-25 13:11:00,83.6,67.3,29.95,West,271,5.0,10.0,58,0.00,,---,0.00,VWS V15.00,2016-07-25 18:11:00,
2016-07-25 13:16:00,83.7,68.8,29.95,WNW,302,1.0,6.0,61,0.00,,---,0.00,VWS V15.00,2016-07-25 18:16:00,
2016-07-25 13:21:00,83.9,68.1,29.95,West,270,10.0,17.0,59,0.00,,---,0.00,VWS V15.00,2016-07-25 18:21:00,
2016-07-25 13:26:00,83.7,67.4,29.95,NW,310,4.0,14.0,58,0.00,,---,0.00,VWS V15.00,2016-07-25 18:26:00,
2016-07-25 13:31:00,83.8,67.5,29.95,NW,325,9.0,12.0,58,0.00,,---,0.00,VWS V15.00,2016-07-25 18:31:00,
2016-07-25 13:36:00,83.9,67.1,29.95,North,355,5.0,7.0,57,0.00,,---,0.00,VWS V15.00,2016-07-25 18:36:00,
2016-07-25 13:41:00,84.4,68.5,29.95,WNW,298,6.0,9.0,59,0.00,,---,0.00,VWS V15.00,2016-07-25 18:41:00,
2016-07-25 13:46:00,84.6,67.7,29.95,NW,326,1.0,9.0,57,0.00,,---,0.00,VWS V15.00,2016-07-25 18:46:00,
2016-07-25 13:51:00,84.7,67.8,29.95,West,280,11.0,11.0,57,0.00,,---,0.00,VWS V15.00,2016-07-25 18:51:00,
2016-07-25 13:56:00,84.6,67.7,29.95,NW,304,5.0,10.0,57,0.00,,---,0.00,VWS V15.00,2016-07-25 18:56:00,
2016-07-25 14:01:00,84.5,68.1,29.95,WNW,300,5.0,5.0,58,0.00,,---,0.00,VWS V15.00,2016-07-25 19:01:00,
2016-07-25 14:06:00,84.6,67.7,29.95,WNW,298,4.0,11.0,57,0.00,,---,0.00,VWS V15.00,2016-07-25 19:06:00,
2016-07-25 14:11:00,84.6,68.2,29.95,WNW,288,7.0,9.0,58,0.00,,---,0.00,VWS V15.00,2016-07-25 19:11:00,
2016-07-25 14:16:00,84.6,68.2,29.95,NW,319,11.0,11.0,58,0.00,,---,0.00,VWS V15.00,2016-07-25 19:16:00,
2016-07-25 14:21:00,84.1,66.7,29.95,WNW,292,0.0,10.0,56,0.00,,---,0.00,VWS V15.00,2016-07-25 19:21:00,
2016-07-25 14:26:00,84.3,68.4,29.95,NW,304,7.0,11.0,59,0.00,,---,0.00,VWS V15.00,2016-07-25 19:26:00,
2016-07-25 14:31:00,84.6,67.7,29.95,NW,308,7.0,7.0,57,0.00,,---,0.00,VWS V15.00,2016-07-25 19:31:00,
2016-07-25 14:36:00,84.7,67.3,29.95,NNW,337,1.0,8.0,56,0.00,,---,0.00,VWS V15.00,2016-07-25 19:36:00,
2016-07-25 14:41:00,84.7,67.3,29.95,WNW,297,0.0,10.0,56,0.00,,---,0.00,VWS V15.00,2016-07-25 19:41:00,
2016-07-25 14:46:00,84.7,68.8,29.95,West,275,1.0,8.0,59,0.00,,---,0.00,VWS V15.00,2016-07-25 19:46:00,
2016-07-25 14:51:00,84.7,67.3,29.95,WNW,298,7.0,10.0,56,0.00,,---,0.00,VWS V15.00,2016-07-25 19:51:00,
2016-07-25 14:56:00,84.2,66.8,29.95,NNW,346,6.0,9.0,56,0.00,,---,0.00,VWS V15.00,2016-07-25 19:56:00,
2016-07-25 15:01:00,84.5,68.6,29.95,WNW,292,0.0,4.0,59,0.00,,---,0.00,VWS V15.00,2016-07-25 20:01:00,
2016-07-25 15:06:00,84.8,67.4,29.95,North,355,3.0,6.0,56,0.00,,---,0.00,VWS V15.00,2016-07-25 20:06:00,
2016-07-25 15:11:00,85.2,67.2,29.95,WNW,287,2.0,12.0,55,0.00,,---,0.00,VWS V15.00,2016-07-25 20:11:00,
2016-07-25 15:16:00,85.6,68.1,29.95,NW,317,0.0,9.0,56,0.00,,---,0.00,VWS V15.00,2016-07-25 20:16:00,
2016-07-25 15:21:00,85.6,68.6,29.95,WNW,284,10.0,10.0,57,0.00,,---,0.00,VWS V15.00,2016-07-25 20:21:00,
2016-07-25 15:26:00,85.4,67.9,29.95,WNW,300,4.0,5.0,56,0.00,,---,0.00,VWS V15.00,2016-07-25 20:26:00,
2016-07-25 15:31:00,85.6,68.1,29.95,WNW,288,5.0,7.0,56,0.00,,---,0.00,VWS V15.00,2016-07-25 20:31:00,
2016-07-25 15:36:00,85.5,68.0,29.94,West,279,8.0,10.0,56,0.00,,---,0.00,VWS V15.00,2016-07-25 20:36:00,
2016-07-25 15:41:00,85.3,66.8,29.94,WNW,297,7.0,7.0,54,0.00,,---,0.00,VWS V15.00,2016-07-25 20:41:00,
2016-07-25 15:46:00,85.0,67.0,29.94,NNW,329,3.0,13.0,55,0.00,,---,0.00,VWS V15.00,2016-07-25 20:46:00,
2016-07-25 15:51:00,84.9,66.9,29.94,WNW,288,8.0,9.0,55,0.00,,---,0.00,VWS V15.00,2016-07-25 20:51:00,
2016-07-25 15:56:00,84.7,67.3,29.94,WSW,241,7.0,11.0,56,0.00,,---,0.00,VWS V15.00,2016-07-25 20:56:00,
2016-07-25 16:01:00,84.7,67.3,29.94,NNW,334,0.0,6.0,56,0.00,,---,0.00,VWS V15.00,2016-07-25 21:01:00,
2016-07-25 16:06:00,85.0,68.1,29.94,WNW,290,3.0,6.0,57,0.00,,---,0.00,VWS V15.00,2016-07-25 21:06:00,
2016-07-25 16:11:00,85.0,67.0,29.94,NNW,342,10.0,12.0,55,0.00,,---,0.00,VWS V15.00,2016-07-25 21:11:00,
2016-07-25 16:16:00,84.8,66.8,29.93,NNW,346,7.0,7.0,55,0.00,,---,0.00,VWS V15.00,2016-07-25 21:16:00,
2016-07-25 16:21:00,84.9,66.9,29.93,WNW,303,6.0,9.0,55,0.00,,---,0.00,VWS V15.00,2016-07-25 21:21:00,
2016-07-25 16:26:00,84.9,67.5,29.93,NNW,335,4.0,6.0,56,0.00,,---,0.00,VWS V15.00,2016-07-25 21:26:00,
2016-07-25 16:31:00,84.9,67.5,29.93,NNW,348,2.0,7.0,56,0.00,,---,0.00,VWS V15.00,2016-07-25 21:31:00,
2016-07-25 16:36:00,84.7,67.3,29.93,NW,311,0.0,6.0,56,0.00,,---,0.00,VWS V15.00,2016-07-25 21:36:00,
2016-07-25 16:41:00,84.6,67.2,29.93,NW,308,3.0,4.0,56,0.00,,---,0.00,VWS V15.00,2016-07-25 21:41:00,
2016-07-25 16:46:00,84.5,67.6,29.93,NW,311,10.0,13.0,57,0.00,,---,0.00,VWS V15.00,2016-07-25 21:46:00,
2016-07-25 16:51:00,83.9,66.5,29.93,NW,306,9.0,9.0,56,0.00,,---,0.00,VWS V15.00,2016-07-25 21:51:00,
2016-07-25 16:56:00,83.5,66.2,29.93,West,277,7.0,7.0,56,0.00,,---,0.00,VWS V15.00,2016-07-25 21:56:00,
2016-07-25 17:01:00,83.3,66.5,29.93,West,279,5.0,5.0,57,0.00,,---,0.00,VWS V15.00,2016-07-25 22:01:00,
2016-07-25 17:06:00,83.1,66.8,29.93,WNW,290,2.0,6.0,58,0.00,,---,0.00,VWS V15.00,2016-07-25 22:06:00,
2016-07-25 17:11:00,82.9,66.6,29.93,NW,315,0.0,5.0,58,0.00,,---,0.00,VWS V15.00,2016-07-25 22:11:00,